sensor_id;sensor_type;location;lat;lon;timestamp;P1;durP1;ratioP1;P2;durP2;ratioP2
57107;SDS011;42987;52.916;6.542;2023-05-07T00:00:53;17.27;;;15.68;;
57107;SDS011;42987;52.916;6.542;2023-05-07T00:03:20;17.35;;;15.63;;
57107;SDS011;42987;52.916;6.542;2023-05-07T00:05:46;19.27;;;17.38;;
57107;SDS011;42987;52.916;6.542;2023-05-07T00:08:13;19.02;;;17.13;;
57107;SDS011;42987;52.916;6.542;2023-05-07T00:10:39;18.67;;;16.98;;
57107;SDS011;42987;52.916;6.542;2023-05-07T00:13:04;19.20;;;17.40;;
57107;SDS011;42987;52.916;6.542;2023-05-07T00:15:30;20.05;;;18.02;;
57107;SDS011;42987;52.916;6.542;2023-05-07T00:17:56;20.77;;;18.88;;
57107;SDS011;42987;52.916;6.542;2023-05-07T00:20:24;21.27;;;19.20;;
57107;SDS011;42987;52.916;6.542;2023-05-07T00:22:50;21.73;;;19.63;;
57107;SDS011;42987;52.916;6.542;2023-05-07T00:25:16;22.23;;;20.13;;
57107;SDS011;42987;52.916;6.542;2023-05-07T00:27:44;23.40;;;21.13;;
57107;SDS011;42987;52.916;6.542;2023-05-07T00:30:10;23.75;;;21.55;;
57107;SDS011;42987;52.916;6.542;2023-05-07T00:32:36;24.98;;;22.38;;
57107;SDS011;42987;52.916;6.542;2023-05-07T00:35:03;25.50;;;22.92;;
57107;SDS011;42987;52.916;6.542;2023-05-07T00:37:29;25.27;;;22.67;;
57107;SDS011;42987;52.916;6.542;2023-05-07T00:39:56;25.35;;;23.13;;
57107;SDS011;42987;52.916;6.542;2023-05-07T00:42:22;28.52;;;25.65;;
57107;SDS011;42987;52.916;6.542;2023-05-07T00:44:49;28.63;;;25.92;;
57107;SDS011;42987;52.916;6.542;2023-05-07T00:47:17;29.05;;;26.45;;
57107;SDS011;42987;52.916;6.542;2023-05-07T00:49:44;28.45;;;25.75;;
57107;SDS011;42987;52.916;6.542;2023-05-07T00:52:14;28.65;;;26.02;;
57107;SDS011;42987;52.916;6.542;2023-05-07T00:54:41;29.92;;;27.05;;
57107;SDS011;42987;52.916;6.542;2023-05-07T00:57:08;31.23;;;28.10;;
57107;SDS011;42987;52.916;6.542;2023-05-07T00:59:36;30.13;;;27.13;;
57107;SDS011;42987;52.916;6.542;2023-05-07T01:02:02;31.90;;;28.90;;
57107;SDS011;42987;52.916;6.542;2023-05-07T01:04:28;31.80;;;28.67;;
57107;SDS011;42987;52.916;6.542;2023-05-07T01:06:55;32.70;;;29.50;;
57107;SDS011;42987;52.916;6.542;2023-05-07T01:09:22;32.92;;;29.63;;
57107;SDS011;42987;52.916;6.542;2023-05-07T01:11:49;33.70;;;30.45;;
57107;SDS011;42987;52.916;6.542;2023-05-07T01:14:17;33.55;;;30.25;;
57107;SDS011;42987;52.916;6.542;2023-05-07T01:16:43;32.17;;;29.17;;
57107;SDS011;42987;52.916;6.542;2023-05-07T01:19:09;35.95;;;32.55;;
57107;SDS011;42987;52.916;6.542;2023-05-07T01:21:38;34.97;;;31.48;;
57107;SDS011;42987;52.916;6.542;2023-05-07T01:24:10;35.38;;;32.00;;
57107;SDS011;42987;52.916;6.542;2023-05-07T01:26:36;34.97;;;31.58;;
57107;SDS011;42987;52.916;6.542;2023-05-07T01:29:02;35.30;;;31.83;;
57107;SDS011;42987;52.916;6.542;2023-05-07T01:31:28;33.90;;;30.73;;
57107;SDS011;42987;52.916;6.542;2023-05-07T01:33:54;35.65;;;32.17;;
57107;SDS011;42987;52.916;6.542;2023-05-07T01:36:23;36.83;;;33.13;;
57107;SDS011;42987;52.916;6.542;2023-05-07T01:38:54;37.70;;;33.92;;
57107;SDS011;42987;52.916;6.542;2023-05-07T01:41:23;38.00;;;34.45;;
57107;SDS011;42987;52.916;6.542;2023-05-07T01:43:49;37.58;;;33.83;;
57107;SDS011;42987;52.916;6.542;2023-05-07T01:46:17;38.38;;;34.63;;
57107;SDS011;42987;52.916;6.542;2023-05-07T01:48:44;38.83;;;35.03;;
57107;SDS011;42987;52.916;6.542;2023-05-07T01:51:11;38.60;;;34.88;;
57107;SDS011;42987;52.916;6.542;2023-05-07T01:53:38;40.20;;;36.40;;
57107;SDS011;42987;52.916;6.542;2023-05-07T01:56:05;38.25;;;34.55;;
57107;SDS011;42987;52.916;6.542;2023-05-07T01:58:38;39.60;;;35.67;;
57107;SDS011;42987;52.916;6.542;2023-05-07T02:01:03;38.72;;;34.83;;
57107;SDS011;42987;52.916;6.542;2023-05-07T02:03:29;40.40;;;36.50;;
57107;SDS011;42987;52.916;6.542;2023-05-07T02:05:55;40.92;;;36.95;;
57107;SDS011;42987;52.916;6.542;2023-05-07T02:08:21;39.45;;;35.60;;
57107;SDS011;42987;52.916;6.542;2023-05-07T02:10:47;42.40;;;38.05;;
57107;SDS011;42987;52.916;6.542;2023-05-07T02:13:13;42.47;;;38.17;;
57107;SDS011;42987;52.916;6.542;2023-05-07T02:15:38;41.30;;;37.28;;
57107;SDS011;42987;52.916;6.542;2023-05-07T02:18:06;41.47;;;37.65;;
57107;SDS011;42987;52.916;6.542;2023-05-07T02:20:34;41.95;;;37.97;;
57107;SDS011;42987;52.916;6.542;2023-05-07T02:23:00;40.78;;;36.78;;
57107;SDS011;42987;52.916;6.542;2023-05-07T02:25:26;41.15;;;36.97;;
57107;SDS011;42987;52.916;6.542;2023-05-07T02:27:51;43.00;;;38.72;;
57107;SDS011;42987;52.916;6.542;2023-05-07T02:30:17;43.83;;;39.33;;
57107;SDS011;42987;52.916;6.542;2023-05-07T02:32:43;40.97;;;37.03;;
57107;SDS011;42987;52.916;6.542;2023-05-07T02:35:09;43.90;;;39.40;;
57107;SDS011;42987;52.916;6.542;2023-05-07T02:37:35;43.65;;;39.35;;
57107;SDS011;42987;52.916;6.542;2023-05-07T02:40:01;43.85;;;39.35;;
57107;SDS011;42987;52.916;6.542;2023-05-07T02:42:28;46.22;;;41.53;;
57107;SDS011;42987;52.916;6.542;2023-05-07T02:44:54;45.25;;;40.75;;
57107;SDS011;42987;52.916;6.542;2023-05-07T02:47:23;45.55;;;41.05;;
57107;SDS011;42987;52.916;6.542;2023-05-07T02:49:52;46.10;;;41.28;;
57107;SDS011;42987;52.916;6.542;2023-05-07T02:52:18;45.80;;;41.17;;
57107;SDS011;42987;52.916;6.542;2023-05-07T02:54:44;47.00;;;42.15;;
57107;SDS011;42987;52.916;6.542;2023-05-07T02:57:10;49.53;;;44.28;;
57107;SDS011;42987;52.916;6.542;2023-05-07T02:59:35;48.10;;;43.20;;
57107;SDS011;42987;52.916;6.542;2023-05-07T03:02:01;47.72;;;42.92;;
57107;SDS011;42987;52.916;6.542;2023-05-07T03:04:27;49.10;;;44.03;;
57107;SDS011;42987;52.916;6.542;2023-05-07T03:06:53;49.28;;;44.30;;
57107;SDS011;42987;52.916;6.542;2023-05-07T03:09:18;50.15;;;44.75;;
57107;SDS011;42987;52.916;6.542;2023-05-07T03:11:44;49.10;;;44.20;;
57107;SDS011;42987;52.916;6.542;2023-05-07T03:14:10;49.22;;;44.15;;
57107;SDS011;42987;52.916;6.542;2023-05-07T03:16:36;51.72;;;46.30;;
57107;SDS011;42987;52.916;6.542;2023-05-07T03:19:01;51.55;;;46.05;;
57107;SDS011;42987;52.916;6.542;2023-05-07T03:21:27;52.72;;;47.10;;
57107;SDS011;42987;52.916;6.542;2023-05-07T03:23:53;53.63;;;48.05;;
57107;SDS011;42987;52.916;6.542;2023-05-07T03:26:19;53.60;;;47.95;;
57107;SDS011;42987;52.916;6.542;2023-05-07T03:28:48;52.80;;;47.28;;
57107;SDS011;42987;52.916;6.542;2023-05-07T03:31:13;53.42;;;47.95;;
57107;SDS011;42987;52.916;6.542;2023-05-07T03:33:49;53.50;;;47.80;;
57107;SDS011;42987;52.916;6.542;2023-05-07T03:36:20;54.15;;;48.35;;
57107;SDS011;42987;52.916;6.542;2023-05-07T03:38:47;55.25;;;49.30;;
57107;SDS011;42987;52.916;6.542;2023-05-07T03:41:14;55.92;;;49.75;;
57107;SDS011;42987;52.916;6.542;2023-05-07T03:43:39;56.00;;;49.30;;
57107;SDS011;42987;52.916;6.542;2023-05-07T03:46:05;56.22;;;50.40;;
57107;SDS011;42987;52.916;6.542;2023-05-07T03:48:31;56.55;;;50.58;;
57107;SDS011;42987;52.916;6.542;2023-05-07T03:50:57;56.10;;;50.35;;
57107;SDS011;42987;52.916;6.542;2023-05-07T03:53:23;54.03;;;48.42;;
57107;SDS011;42987;52.916;6.542;2023-05-07T03:55:49;56.28;;;49.92;;
57107;SDS011;42987;52.916;6.542;2023-05-07T03:58:19;56.97;;;50.92;;
57107;SDS011;42987;52.916;6.542;2023-05-07T04:00:45;55.83;;;49.72;;
57107;SDS011;42987;52.916;6.542;2023-05-07T04:03:10;56.13;;;50.05;;
57107;SDS011;42987;52.916;6.542;2023-05-07T04:05:36;55.03;;;49.25;;
57107;SDS011;42987;52.916;6.542;2023-05-07T04:08:02;57.75;;;51.45;;
57107;SDS011;42987;52.916;6.542;2023-05-07T04:10:29;57.60;;;51.50;;
57107;SDS011;42987;52.916;6.542;2023-05-07T04:12:55;58.05;;;51.80;;
57107;SDS011;42987;52.916;6.542;2023-05-07T04:15:24;57.90;;;51.70;;
57107;SDS011;42987;52.916;6.542;2023-05-07T04:17:49;57.67;;;51.30;;
57107;SDS011;42987;52.916;6.542;2023-05-07T04:20:16;58.15;;;52.03;;
57107;SDS011;42987;52.916;6.542;2023-05-07T04:22:42;57.33;;;51.05;;
57107;SDS011;42987;52.916;6.542;2023-05-07T04:25:08;56.33;;;50.40;;
57107;SDS011;42987;52.916;6.542;2023-05-07T04:27:35;55.63;;;49.63;;
57107;SDS011;42987;52.916;6.542;2023-05-07T04:30:01;55.22;;;49.38;;
57107;SDS011;42987;52.916;6.542;2023-05-07T04:32:28;55.63;;;50.03;;
57107;SDS011;42987;52.916;6.542;2023-05-07T04:34:54;58.67;;;49.90;;
57107;SDS011;42987;52.916;6.542;2023-05-07T04:37:21;55.42;;;49.58;;
57107;SDS011;42987;52.916;6.542;2023-05-07T04:39:47;55.05;;;49.22;;
57107;SDS011;42987;52.916;6.542;2023-05-07T04:42:16;52.47;;;47.08;;
57107;SDS011;42987;52.916;6.542;2023-05-07T04:44:45;54.33;;;48.63;;
57107;SDS011;42987;52.916;6.542;2023-05-07T04:47:11;51.63;;;46.40;;
57107;SDS011;42987;52.916;6.542;2023-05-07T04:49:40;53.13;;;47.55;;
57107;SDS011;42987;52.916;6.542;2023-05-07T04:52:06;51.65;;;46.28;;
57107;SDS011;42987;52.916;6.542;2023-05-07T04:54:32;50.55;;;45.20;;
57107;SDS011;42987;52.916;6.542;2023-05-07T04:56:57;50.15;;;45.08;;
57107;SDS011;42987;52.916;6.542;2023-05-07T04:59:23;49.40;;;44.33;;
57107;SDS011;42987;52.916;6.542;2023-05-07T05:01:49;50.15;;;44.92;;
57107;SDS011;42987;52.916;6.542;2023-05-07T05:04:15;48.78;;;43.75;;
57107;SDS011;42987;52.916;6.542;2023-05-07T05:06:40;48.92;;;43.92;;
57107;SDS011;42987;52.916;6.542;2023-05-07T05:09:06;49.63;;;44.45;;
57107;SDS011;42987;52.916;6.542;2023-05-07T05:11:32;47.20;;;42.58;;
57107;SDS011;42987;52.916;6.542;2023-05-07T05:13:59;47.13;;;42.40;;
57107;SDS011;42987;52.916;6.542;2023-05-07T05:16:25;47.60;;;42.70;;
57107;SDS011;42987;52.916;6.542;2023-05-07T05:18:51;45.83;;;41.25;;
57107;SDS011;42987;52.916;6.542;2023-05-07T05:21:17;44.78;;;40.45;;
57107;SDS011;42987;52.916;6.542;2023-05-07T05:23:43;46.75;;;42.05;;
57107;SDS011;42987;52.916;6.542;2023-05-07T05:26:10;47.15;;;42.50;;
57107;SDS011;42987;52.916;6.542;2023-05-07T05:28:35;46.28;;;41.50;;
57107;SDS011;42987;52.916;6.542;2023-05-07T05:31:01;46.10;;;41.50;;
57107;SDS011;42987;52.916;6.542;2023-05-07T05:33:27;46.40;;;42.03;;
57107;SDS011;42987;52.916;6.542;2023-05-07T05:35:53;46.05;;;41.65;;
57107;SDS011;42987;52.916;6.542;2023-05-07T05:38:19;46.67;;;42.03;;
57107;SDS011;42987;52.916;6.542;2023-05-07T05:40:46;44.28;;;39.88;;
57107;SDS011;42987;52.916;6.542;2023-05-07T05:43:12;45.10;;;40.70;;
57107;SDS011;42987;52.916;6.542;2023-05-07T05:45:38;45.75;;;41.22;;
57107;SDS011;42987;52.916;6.542;2023-05-07T05:48:04;42.90;;;38.88;;
57107;SDS011;42987;52.916;6.542;2023-05-07T05:50:30;44.67;;;40.25;;
57107;SDS011;42987;52.916;6.542;2023-05-07T05:52:56;44.25;;;39.75;;
57107;SDS011;42987;52.916;6.542;2023-05-07T05:55:23;44.67;;;40.35;;
57107;SDS011;42987;52.916;6.542;2023-05-07T05:57:49;44.83;;;40.15;;
57107;SDS011;42987;52.916;6.542;2023-05-07T06:00:16;43.03;;;38.85;;
57107;SDS011;42987;52.916;6.542;2023-05-07T06:02:41;45.28;;;40.80;;
57107;SDS011;42987;52.916;6.542;2023-05-07T06:05:10;42.95;;;38.65;;
57107;SDS011;42987;52.916;6.542;2023-05-07T06:07:36;43.65;;;39.35;;
57107;SDS011;42987;52.916;6.542;2023-05-07T06:10:01;43.13;;;39.03;;
57107;SDS011;42987;52.916;6.542;2023-05-07T06:12:27;43.25;;;39.17;;
57107;SDS011;42987;52.916;6.542;2023-05-07T06:14:53;43.38;;;39.17;;
57107;SDS011;42987;52.916;6.542;2023-05-07T06:17:18;42.63;;;38.65;;
57107;SDS011;42987;52.916;6.542;2023-05-07T06:19:44;42.75;;;38.65;;
57107;SDS011;42987;52.916;6.542;2023-05-07T06:22:10;42.15;;;38.13;;
57107;SDS011;42987;52.916;6.542;2023-05-07T06:24:36;44.40;;;40.10;;
57107;SDS011;42987;52.916;6.542;2023-05-07T06:27:02;43.67;;;39.35;;
57107;SDS011;42987;52.916;6.542;2023-05-07T06:29:28;43.97;;;39.67;;
57107;SDS011;42987;52.916;6.542;2023-05-07T06:31:56;43.85;;;39.47;;
57107;SDS011;42987;52.916;6.542;2023-05-07T06:34:30;42.25;;;38.20;;
57107;SDS011;42987;52.916;6.542;2023-05-07T06:36:56;42.80;;;38.78;;
57107;SDS011;42987;52.916;6.542;2023-05-07T06:39:22;41.47;;;37.53;;
57107;SDS011;42987;52.916;6.542;2023-05-07T06:41:47;43.05;;;39.03;;
57107;SDS011;42987;52.916;6.542;2023-05-07T06:44:13;44.17;;;39.95;;
57107;SDS011;42987;52.916;6.542;2023-05-07T06:46:40;44.28;;;39.97;;
57107;SDS011;42987;52.916;6.542;2023-05-07T06:49:06;43.70;;;39.40;;
57107;SDS011;42987;52.916;6.542;2023-05-07T06:51:32;42.97;;;38.92;;
57107;SDS011;42987;52.916;6.542;2023-05-07T06:53:58;44.80;;;40.47;;
57107;SDS011;42987;52.916;6.542;2023-05-07T06:56:24;43.42;;;39.13;;
57107;SDS011;42987;52.916;6.542;2023-05-07T06:58:50;44.83;;;40.53;;
57107;SDS011;42987;52.916;6.542;2023-05-07T07:01:16;43.88;;;39.55;;
57107;SDS011;42987;52.916;6.542;2023-05-07T07:03:42;43.75;;;39.15;;
57107;SDS011;42987;52.916;6.542;2023-05-07T07:06:08;42.80;;;38.63;;
57107;SDS011;42987;52.916;6.542;2023-05-07T07:08:34;45.53;;;40.90;;
57107;SDS011;42987;52.916;6.542;2023-05-07T07:11:00;43.10;;;38.83;;
57107;SDS011;42987;52.916;6.542;2023-05-07T07:13:26;44.13;;;39.72;;
57107;SDS011;42987;52.916;6.542;2023-05-07T07:15:52;43.17;;;38.88;;
57107;SDS011;42987;52.916;6.542;2023-05-07T07:18:21;47.05;;;42.03;;
57107;SDS011;42987;52.916;6.542;2023-05-07T07:20:47;44.05;;;39.63;;
57107;SDS011;42987;52.916;6.542;2023-05-07T07:23:13;43.38;;;39.13;;
57107;SDS011;42987;52.916;6.542;2023-05-07T07:25:39;43.78;;;39.40;;
57107;SDS011;42987;52.916;6.542;2023-05-07T07:28:05;43.67;;;39.17;;
57107;SDS011;42987;52.916;6.542;2023-05-07T07:30:31;42.20;;;38.17;;
57107;SDS011;42987;52.916;6.542;2023-05-07T07:32:57;42.55;;;38.45;;
57107;SDS011;42987;52.916;6.542;2023-05-07T07:35:28;43.95;;;39.63;;
57107;SDS011;42987;52.916;6.542;2023-05-07T07:37:54;41.55;;;37.47;;
57107;SDS011;42987;52.916;6.542;2023-05-07T07:40:23;41.78;;;37.55;;
57107;SDS011;42987;52.916;6.542;2023-05-07T07:42:50;42.97;;;38.85;;
57107;SDS011;42987;52.916;6.542;2023-05-07T07:45:16;41.45;;;37.40;;
57107;SDS011;42987;52.916;6.542;2023-05-07T07:47:42;42.15;;;37.88;;
57107;SDS011;42987;52.916;6.542;2023-05-07T07:50:08;42.28;;;38.08;;
57107;SDS011;42987;52.916;6.542;2023-05-07T07:52:34;41.65;;;37.58;;
57107;SDS011;42987;52.916;6.542;2023-05-07T07:55:00;40.90;;;36.92;;
57107;SDS011;42987;52.916;6.542;2023-05-07T07:57:26;41.45;;;37.45;;
57107;SDS011;42987;52.916;6.542;2023-05-07T07:59:52;41.00;;;36.83;;
57107;SDS011;42987;52.916;6.542;2023-05-07T08:02:18;40.95;;;36.90;;
57107;SDS011;42987;52.916;6.542;2023-05-07T08:04:44;38.75;;;34.95;;
57107;SDS011;42987;52.916;6.542;2023-05-07T08:07:10;39.80;;;35.88;;
57107;SDS011;42987;52.916;6.542;2023-05-07T08:09:39;39.33;;;35.58;;
57107;SDS011;42987;52.916;6.542;2023-05-07T08:12:06;39.53;;;35.53;;
57107;SDS011;42987;52.916;6.542;2023-05-07T08:14:32;39.20;;;35.30;;
57107;SDS011;42987;52.916;6.542;2023-05-07T08:16:59;39.08;;;35.25;;
57107;SDS011;42987;52.916;6.542;2023-05-07T08:19:24;39.42;;;35.65;;
57107;SDS011;42987;52.916;6.542;2023-05-07T08:21:50;38.58;;;34.88;;
57107;SDS011;42987;52.916;6.542;2023-05-07T08:24:16;39.47;;;35.58;;
57107;SDS011;42987;52.916;6.542;2023-05-07T08:26:43;41.38;;;37.38;;
57107;SDS011;42987;52.916;6.542;2023-05-07T08:29:10;40.90;;;36.85;;
57107;SDS011;42987;52.916;6.542;2023-05-07T08:31:36;39.70;;;35.80;;
57107;SDS011;42987;52.916;6.542;2023-05-07T08:34:04;38.72;;;35.05;;
57107;SDS011;42987;52.916;6.542;2023-05-07T08:36:30;38.22;;;34.55;;
57107;SDS011;42987;52.916;6.542;2023-05-07T08:38:57;38.28;;;34.47;;
57107;SDS011;42987;52.916;6.542;2023-05-07T08:41:26;40.13;;;36.33;;
57107;SDS011;42987;52.916;6.542;2023-05-07T08:43:51;42.15;;;38.00;;
57107;SDS011;42987;52.916;6.542;2023-05-07T08:46:25;40.75;;;36.95;;
57107;SDS011;42987;52.916;6.542;2023-05-07T08:48:56;40.80;;;36.80;;
57107;SDS011;42987;52.916;6.542;2023-05-07T08:51:22;38.88;;;35.17;;
57107;SDS011;42987;52.916;6.542;2023-05-07T08:53:48;40.83;;;36.92;;
57107;SDS011;42987;52.916;6.542;2023-05-07T08:56:15;40.40;;;36.38;;
57107;SDS011;42987;52.916;6.542;2023-05-07T08:58:44;40.42;;;36.63;;
57107;SDS011;42987;52.916;6.542;2023-05-07T09:01:14;39.15;;;35.45;;
57107;SDS011;42987;52.916;6.542;2023-05-07T09:03:41;38.10;;;34.40;;
57107;SDS011;42987;52.916;6.542;2023-05-07T09:06:10;38.13;;;34.50;;
57107;SDS011;42987;52.916;6.542;2023-05-07T09:08:36;37.92;;;34.35;;
57107;SDS011;42987;52.916;6.542;2023-05-07T09:11:02;38.47;;;34.78;;
57107;SDS011;42987;52.916;6.542;2023-05-07T09:13:28;37.78;;;34.17;;
57107;SDS011;42987;52.916;6.542;2023-05-07T09:15:54;39.35;;;35.75;;
57107;SDS011;42987;52.916;6.542;2023-05-07T09:18:21;36.58;;;33.17;;
57107;SDS011;42987;52.916;6.542;2023-05-07T09:20:48;36.58;;;33.10;;
57107;SDS011;42987;52.916;6.542;2023-05-07T09:23:14;37.95;;;34.53;;
57107;SDS011;42987;52.916;6.542;2023-05-07T09:25:40;37.75;;;34.25;;
57107;SDS011;42987;52.916;6.542;2023-05-07T09:28:06;39.95;;;36.33;;
57107;SDS011;42987;52.916;6.542;2023-05-07T09:30:32;38.13;;;34.63;;
57107;SDS011;42987;52.916;6.542;2023-05-07T09:32:59;34.85;;;31.35;;
57107;SDS011;42987;52.916;6.542;2023-05-07T09:35:26;36.55;;;33.20;;
57107;SDS011;42987;52.916;6.542;2023-05-07T09:37:53;35.45;;;32.15;;
57107;SDS011;42987;52.916;6.542;2023-05-07T09:40:24;36.05;;;32.72;;
57107;SDS011;42987;52.916;6.542;2023-05-07T09:42:52;32.60;;;29.45;;
57107;SDS011;42987;52.916;6.542;2023-05-07T09:45:22;34.30;;;31.10;;
57107;SDS011;42987;52.916;6.542;2023-05-07T09:47:55;33.13;;;30.02;;
57107;SDS011;42987;52.916;6.542;2023-05-07T09:50:29;34.05;;;30.83;;
57107;SDS011;42987;52.916;6.542;2023-05-07T09:52:58;32.50;;;29.45;;
57107;SDS011;42987;52.916;6.542;2023-05-07T09:55:24;31.27;;;28.48;;
57107;SDS011;42987;52.916;6.542;2023-05-07T09:57:53;30.70;;;27.95;;
57107;SDS011;42987;52.916;6.542;2023-05-07T10:02:48;30.80;;;27.88;;
57107;SDS011;42987;52.916;6.542;2023-05-07T10:05:17;31.02;;;28.23;;
57107;SDS011;42987;52.916;6.542;2023-05-07T10:07:44;32.72;;;29.42;;
57107;SDS011;42987;52.916;6.542;2023-05-07T10:10:10;32.65;;;29.63;;
57107;SDS011;42987;52.916;6.542;2023-05-07T10:12:40;29.48;;;26.90;;
57107;SDS011;42987;52.916;6.542;2023-05-07T10:15:06;29.92;;;27.23;;
57107;SDS011;42987;52.916;6.542;2023-05-07T10:17:35;29.73;;;27.02;;
57107;SDS011;42987;52.916;6.542;2023-05-07T10:20:01;32.25;;;29.35;;
57107;SDS011;42987;52.916;6.542;2023-05-07T10:22:31;30.15;;;27.42;;
57107;SDS011;42987;52.916;6.542;2023-05-07T10:25:02;31.15;;;28.40;;
57107;SDS011;42987;52.916;6.542;2023-05-07T10:27:31;28.35;;;25.92;;
57107;SDS011;42987;52.916;6.542;2023-05-07T10:30:12;31.00;;;28.23;;
57107;SDS011;42987;52.916;6.542;2023-05-07T10:32:56;28.23;;;25.63;;
57107;SDS011;42987;52.916;6.542;2023-05-07T10:35:31;28.02;;;25.45;;
57107;SDS011;42987;52.916;6.542;2023-05-07T10:38:03;30.65;;;27.95;;
57107;SDS011;42987;52.916;6.542;2023-05-07T10:40:30;27.58;;;25.00;;
57107;SDS011;42987;52.916;6.542;2023-05-07T10:42:57;27.73;;;25.30;;
57107;SDS011;42987;52.916;6.542;2023-05-07T10:45:25;26.77;;;24.30;;
57107;SDS011;42987;52.916;6.542;2023-05-07T10:50:43;25.27;;;22.98;;
57107;SDS011;42987;52.916;6.542;2023-05-07T10:55:43;26.52;;;24.05;;
57107;SDS011;42987;52.916;6.542;2023-05-07T10:58:27;27.67;;;25.08;;
57107;SDS011;42987;52.916;6.542;2023-05-07T11:00:56;25.33;;;22.92;;
57107;SDS011;42987;52.916;6.542;2023-05-07T11:03:23;23.98;;;21.77;;
57107;SDS011;42987;52.916;6.542;2023-05-07T11:15:03;22.15;;;20.25;;
57107;SDS011;42987;52.916;6.542;2023-05-07T11:17:06;23.23;;;21.17;;
57107;SDS011;42987;52.916;6.542;2023-05-07T11:19:51;22.00;;;20.00;;
57107;SDS011;42987;52.916;6.542;2023-05-07T11:24:55;21.33;;;19.33;;
57107;SDS011;42987;52.916;6.542;2023-05-07T11:27:24;22.92;;;20.88;;
57107;SDS011;42987;52.916;6.542;2023-05-07T11:29:51;24.55;;;22.33;;
57107;SDS011;42987;52.916;6.542;2023-05-07T11:32:24;23.13;;;21.10;;
57107;SDS011;42987;52.916;6.542;2023-05-07T11:34:53;23.33;;;21.08;;
57107;SDS011;42987;52.916;6.542;2023-05-07T11:37:24;25.05;;;22.92;;
57107;SDS011;42987;52.916;6.542;2023-05-07T11:40:01;24.25;;;22.17;;
57107;SDS011;42987;52.916;6.542;2023-05-07T11:42:32;24.55;;;22.30;;
57107;SDS011;42987;52.916;6.542;2023-05-07T11:45:00;25.42;;;23.08;;
57107;SDS011;42987;52.916;6.542;2023-05-07T11:47:26;25.23;;;23.02;;
57107;SDS011;42987;52.916;6.542;2023-05-07T11:49:55;25.20;;;23.00;;
57107;SDS011;42987;52.916;6.542;2023-05-07T11:52:27;25.58;;;23.23;;
57107;SDS011;42987;52.916;6.542;2023-05-07T11:54:54;25.13;;;22.95;;
57107;SDS011;42987;52.916;6.542;2023-05-07T11:57:23;25.15;;;22.95;;
57107;SDS011;42987;52.916;6.542;2023-05-07T11:59:55;23.77;;;21.63;;
57107;SDS011;42987;52.916;6.542;2023-05-07T12:02:28;25.95;;;23.55;;
57107;SDS011;42987;52.916;6.542;2023-05-07T12:04:54;25.10;;;22.83;;
57107;SDS011;42987;52.916;6.542;2023-05-07T12:07:23;26.35;;;24.13;;
57107;SDS011;42987;52.916;6.542;2023-05-07T12:09:50;26.25;;;23.80;;
57107;SDS011;42987;52.916;6.542;2023-05-07T12:12:17;25.20;;;22.90;;
57107;SDS011;42987;52.916;6.542;2023-05-07T12:14:43;25.98;;;23.60;;
57107;SDS011;42987;52.916;6.542;2023-05-07T12:17:11;23.63;;;21.52;;
57107;SDS011;42987;52.916;6.542;2023-05-07T12:19:41;24.67;;;22.40;;
57107;SDS011;42987;52.916;6.542;2023-05-07T12:22:08;23.83;;;21.63;;
57107;SDS011;42987;52.916;6.542;2023-05-07T12:24:47;22.95;;;20.95;;
57107;SDS011;42987;52.916;6.542;2023-05-07T12:27:14;25.90;;;23.48;;
57107;SDS011;42987;52.916;6.542;2023-05-07T12:29:45;22.98;;;20.98;;
57107;SDS011;42987;52.916;6.542;2023-05-07T12:32:15;24.83;;;22.65;;
57107;SDS011;42987;52.916;6.542;2023-05-07T12:34:43;23.90;;;21.70;;
57107;SDS011;42987;52.916;6.542;2023-05-07T12:37:10;23.15;;;21.13;;
57107;SDS011;42987;52.916;6.542;2023-05-07T12:39:36;23.92;;;21.80;;
57107;SDS011;42987;52.916;6.542;2023-05-07T12:42:02;24.50;;;22.27;;
57107;SDS011;42987;52.916;6.542;2023-05-07T12:44:31;24.02;;;21.85;;
57107;SDS011;42987;52.916;6.542;2023-05-07T12:46:58;23.23;;;21.13;;
57107;SDS011;42987;52.916;6.542;2023-05-07T12:49:27;24.10;;;22.00;;
57107;SDS011;42987;52.916;6.542;2023-05-07T12:51:53;21.23;;;19.33;;
57107;SDS011;42987;52.916;6.542;2023-05-07T12:57:02;23.55;;;21.55;;
57107;SDS011;42987;52.916;6.542;2023-05-07T12:59:39;21.90;;;19.90;;
57107;SDS011;42987;52.916;6.542;2023-05-07T13:02:09;22.27;;;20.33;;
57107;SDS011;42987;52.916;6.542;2023-05-07T13:04:35;20.65;;;18.75;;
57107;SDS011;42987;52.916;6.542;2023-05-07T13:07:01;20.70;;;19.00;;
57107;SDS011;42987;52.916;6.542;2023-05-07T13:09:27;21.50;;;19.52;;
57107;SDS011;42987;52.916;6.542;2023-05-07T13:11:59;20.00;;;18.20;;
57107;SDS011;42987;52.916;6.542;2023-05-07T13:14:27;21.15;;;19.15;;
57107;SDS011;42987;52.916;6.542;2023-05-07T13:16:53;21.63;;;19.65;;
57107;SDS011;42987;52.916;6.542;2023-05-07T13:19:19;21.65;;;19.75;;
57107;SDS011;42987;52.916;6.542;2023-05-07T13:21:48;21.30;;;19.50;;
57107;SDS011;42987;52.916;6.542;2023-05-07T13:24:15;21.08;;;19.17;;
57107;SDS011;42987;52.916;6.542;2023-05-07T13:26:40;20.20;;;18.50;;
57107;SDS011;42987;52.916;6.542;2023-05-07T13:29:06;19.80;;;18.00;;
57107;SDS011;42987;52.916;6.542;2023-05-07T13:31:32;20.38;;;18.67;;
57107;SDS011;42987;52.916;6.542;2023-05-07T13:33:58;20.55;;;18.75;;
57107;SDS011;42987;52.916;6.542;2023-05-07T13:36:24;20.55;;;18.65;;
57107;SDS011;42987;52.916;6.542;2023-05-07T13:38:51;20.80;;;19.00;;
57107;SDS011;42987;52.916;6.542;2023-05-07T13:41:17;20.45;;;18.75;;
57107;SDS011;42987;52.916;6.542;2023-05-07T13:43:43;19.80;;;18.08;;
57107;SDS011;42987;52.916;6.542;2023-05-07T13:46:08;23.05;;;21.05;;
57107;SDS011;42987;52.916;6.542;2023-05-07T13:48:34;20.63;;;18.83;;
57107;SDS011;42987;52.916;6.542;2023-05-07T13:51:00;21.33;;;19.52;;
57107;SDS011;42987;52.916;6.542;2023-05-07T13:53:26;20.38;;;18.65;;
57107;SDS011;42987;52.916;6.542;2023-05-07T13:55:52;19.52;;;17.83;;
57107;SDS011;42987;52.916;6.542;2023-05-07T13:58:18;19.67;;;17.98;;
57107;SDS011;42987;52.916;6.542;2023-05-07T14:00:43;19.88;;;18.17;;
57107;SDS011;42987;52.916;6.542;2023-05-07T14:03:09;18.60;;;17.02;;
57107;SDS011;42987;52.916;6.542;2023-05-07T14:05:35;19.77;;;17.98;;
57107;SDS011;42987;52.916;6.542;2023-05-07T14:08:04;18.67;;;16.75;;
57107;SDS011;42987;52.916;6.542;2023-05-07T14:10:30;18.42;;;16.67;;
57107;SDS011;42987;52.916;6.542;2023-05-07T14:12:56;19.27;;;17.67;;
57107;SDS011;42987;52.916;6.542;2023-05-07T14:15:22;19.33;;;17.65;;
57107;SDS011;42987;52.916;6.542;2023-05-07T14:17:51;19.95;;;18.25;;
57107;SDS011;42987;52.916;6.542;2023-05-07T14:20:17;19.10;;;17.45;;
57107;SDS011;42987;52.916;6.542;2023-05-07T14:22:43;19.13;;;17.52;;
57107;SDS011;42987;52.916;6.542;2023-05-07T14:25:10;18.90;;;17.40;;
57107;SDS011;42987;52.916;6.542;2023-05-07T14:27:36;17.75;;;16.17;;
57107;SDS011;42987;52.916;6.542;2023-05-07T14:30:01;18.75;;;17.15;;
57107;SDS011;42987;52.916;6.542;2023-05-07T14:32:30;19.70;;;18.00;;
57107;SDS011;42987;52.916;6.542;2023-05-07T14:34:56;19.30;;;17.70;;
57107;SDS011;42987;52.916;6.542;2023-05-07T14:37:21;20.10;;;18.17;;
57107;SDS011;42987;52.916;6.542;2023-05-07T14:39:47;18.85;;;17.35;;
57107;SDS011;42987;52.916;6.542;2023-05-07T14:42:13;18.90;;;17.30;;